KEKN/EKN METAR and TAF weather

Enter ICAO airport designator
Station Type Date Time Source
KEKN METAR 2021/02/27 09:51 UTC NOAA

KEKN 270951Z AUTO 17006KT 10SM OVC030 05/01 A3001 RMK AO2 SLP179 T00500006


Station Type Date Time Source
KEKN Decoded METAR 2021/02/27 09:51 UTC NOAA

JENNINGS RANDOLPH FIELD, WV, United States (KEKN) 38-53N 079-51W 603M
Feb 27, 2021 - 04:51 AM EST / 2021.02.27 0951 UTC
Wind: from the S (170 degrees) at 7 MPH (6 KT):0
Visibility: 10 mile(s):0
Sky conditions: overcast
Temperature: 41.0 F (5.0 C)
Dew Point: 33.1 F (0.6 C)
Relative Humidity: 73%
Pressure (altimeter): 30.01 in. Hg (1016 hPa)
ob: KEKN 270951Z AUTO 17006KT 10SM OVC030 05/01 A3001 RMK AO2 SLP179 T00500006
cycle: 10

Station Type Date Time Source
KEKN TAF 2021/02/27 09:24 UTC NOAA

TAF
AMD KEKN 270920Z 2709/2806 16009KT P6SM OVC040
FM271100 16008G16KT P6SM -RA OVC028
FM271300 18006KT 4SM -RA BR OVC009
FM271900 26006KT 6SM BR OVC012

Example: see airport list